sensor_id;sensor_type;location;lat;lon;timestamp;pressure;altitude;pressure_sealevel;temperature;humidity
24620;BME280;12763;55.802;37.404;2023-03-23T00:01:08;99255.63;;;8.44;71.39
24620;BME280;12763;55.802;37.404;2023-03-23T00:03:39;99255.63;;;8.31;71.97
24620;BME280;12763;55.802;37.404;2023-03-23T00:06:06;99256.00;;;8.14;73.31
24620;BME280;12763;55.802;37.404;2023-03-23T00:08:34;99254.13;;;8.35;72.81
24620;BME280;12763;55.802;37.404;2023-03-23T00:11:06;99244.19;;;8.60;71.66
24620;BME280;12763;55.802;37.404;2023-03-23T00:13:33;99244.19;;;8.40;72.04
24620;BME280;12763;55.802;37.404;2023-03-23T00:15:59;99235.75;;;8.42;72.12
24620;BME280;12763;55.802;37.404;2023-03-23T00:18:25;99226.03;;;8.39;72.20
24620;BME280;12763;55.802;37.404;2023-03-23T00:20:55;99226.84;;;8.46;72.14
24620;BME280;12763;55.802;37.404;2023-03-23T00:23:24;99228.09;;;8.57;71.82
24620;BME280;12763;55.802;37.404;2023-03-23T00:25:53;99222.63;;;8.44;72.27
24620;BME280;12763;55.802;37.404;2023-03-23T00:28:23;99227.25;;;8.23;73.41
24620;BME280;12763;55.802;37.404;2023-03-23T00:31:00;99224.75;;;8.42;73.03
24620;BME280;12763;55.802;37.404;2023-03-23T00:33:29;99213.72;;;8.28;73.49
24620;BME280;12763;55.802;37.404;2023-03-23T00:35:55;99218.16;;;8.43;72.81
24620;BME280;12763;55.802;37.404;2023-03-23T00:38:22;99213.72;;;8.28;73.63
24620;BME280;12763;55.802;37.404;2023-03-23T00:40:49;99223.88;;;8.35;73.77
24620;BME280;12763;55.802;37.404;2023-03-23T00:43:19;99219.25;;;8.42;73.09
24620;BME280;12763;55.802;37.404;2023-03-23T00:45:46;99209.53;;;8.33;73.64
24620;BME280;12763;55.802;37.404;2023-03-23T00:48:19;99206.34;;;8.29;74.50
24620;BME280;12763;55.802;37.404;2023-03-23T00:50:45;99205.66;;;8.20;74.26
24620;BME280;12763;55.802;37.404;2023-03-23T00:53:11;99211.44;;;8.39;73.61
24620;BME280;12763;55.802;37.404;2023-03-23T00:55:36;99212.44;;;8.24;74.74
24620;BME280;12763;55.802;37.404;2023-03-23T00:58:02;99214.97;;;8.26;74.57
24620;BME280;12763;55.802;37.404;2023-03-23T01:00:28;99217.31;;;8.22;75.46
24620;BME280;12763;55.802;37.404;2023-03-23T01:02:54;99221.31;;;8.13;75.71
24620;BME280;12763;55.802;37.404;2023-03-23T01:05:20;99205.25;;;8.04;76.56
24620;BME280;12763;55.802;37.404;2023-03-23T01:07:46;99201.44;;;8.18;75.97
24620;BME280;12763;55.802;37.404;2023-03-23T01:10:14;99200.41;;;8.25;75.30
24620;BME280;12763;55.802;37.404;2023-03-23T01:12:44;99198.47;;;8.26;75.28
24620;BME280;12763;55.802;37.404;2023-03-23T01:15:15;99194.94;;;8.39;75.43
24620;BME280;12763;55.802;37.404;2023-03-23T01:17:42;99201.25;;;8.46;74.31
24620;BME280;12763;55.802;37.404;2023-03-23T01:20:09;99204.00;;;8.46;74.48
24620;BME280;12763;55.802;37.404;2023-03-23T01:22:37;99192.34;;;8.57;73.81
24620;BME280;12763;55.802;37.404;2023-03-23T01:25:04;99195.34;;;8.36;74.91
24620;BME280;12763;55.802;37.404;2023-03-23T01:27:30;99198.28;;;8.21;75.93
24620;BME280;12763;55.802;37.404;2023-03-23T01:29:55;99197.66;;;8.45;74.91
24620;BME280;12763;55.802;37.404;2023-03-23T01:32:21;99190.88;;;8.21;76.54
24620;BME280;12763;55.802;37.404;2023-03-23T01:34:47;99185.38;;;8.21;76.47
24620;BME280;12763;55.802;37.404;2023-03-23T01:37:13;99181.78;;;8.08;77.00
24620;BME280;12763;55.802;37.404;2023-03-23T01:39:39;99185.81;;;8.05;77.45
24620;BME280;12763;55.802;37.404;2023-03-23T01:42:05;99172.50;;;8.02;77.69
24620;BME280;12763;55.802;37.404;2023-03-23T01:47:01;99171.44;;;8.30;75.71
24620;BME280;12763;55.802;37.404;2023-03-23T01:49:36;99177.81;;;8.37;75.77
24620;BME280;12763;55.802;37.404;2023-03-23T01:52:14;99174.84;;;8.38;76.25
24620;BME280;12763;55.802;37.404;2023-03-23T01:54:44;99166.16;;;7.95;78.25
24620;BME280;12763;55.802;37.404;2023-03-23T01:57:15;99169.31;;;7.92;78.99
24620;BME280;12763;55.802;37.404;2023-03-23T01:59:43;99177.38;;;8.20;77.51
24620;BME280;12763;55.802;37.404;2023-03-23T02:02:25;99169.31;;;7.86;79.16
24620;BME280;12763;55.802;37.404;2023-03-23T02:04:58;99162.13;;;8.11;78.16
24620;BME280;12763;55.802;37.404;2023-03-23T02:07:28;99157.47;;;7.85;79.08
24620;BME280;12763;55.802;37.404;2023-03-23T02:09:56;99161.69;;;7.68;80.48
24620;BME280;12763;55.802;37.404;2023-03-23T02:12:22;99150.31;;;7.97;79.24
24620;BME280;12763;55.802;37.404;2023-03-23T02:14:50;99155.78;;;8.10;77.95
24620;BME280;12763;55.802;37.404;2023-03-23T02:17:54;99153.03;;;8.23;77.35
24620;BME280;12763;55.802;37.404;2023-03-23T02:20:38;99149.47;;;8.30;77.12
24620;BME280;12763;55.802;37.404;2023-03-23T02:23:37;99136.13;;;8.13;78.50
24620;BME280;12763;55.802;37.404;2023-03-23T02:35:34;99141.00;;;7.92;79.58
24620;BME280;12763;55.802;37.404;2023-03-23T02:38:06;99147.34;;;8.05;78.89
24620;BME280;12763;55.802;37.404;2023-03-23T02:40:46;99137.19;;;7.86;80.50
24620;BME280;12763;55.802;37.404;2023-03-23T02:43:16;99147.53;;;8.04;78.89
24620;BME280;12763;55.802;37.404;2023-03-23T02:45:45;99158.53;;;7.91;78.66
24620;BME280;12763;55.802;37.404;2023-03-23T02:48:13;99153.91;;;7.98;78.96
24620;BME280;12763;55.802;37.404;2023-03-23T02:50:43;99146.06;;;7.88;79.50
24620;BME280;12763;55.802;37.404;2023-03-23T02:53:12;99162.53;;;7.82;80.20
24620;BME280;12763;55.802;37.404;2023-03-23T02:55:41;99143.75;;;7.72;81.00
24620;BME280;12763;55.802;37.404;2023-03-23T02:58:13;99148.59;;;7.83;80.46
24620;BME280;12763;55.802;37.404;2023-03-23T03:00:42;99145.84;;;7.77;80.98
24620;BME280;12763;55.802;37.404;2023-03-23T03:03:13;99146.69;;;7.77;82.35
24620;BME280;12763;55.802;37.404;2023-03-23T03:05:46;99139.31;;;7.64;82.59
24620;BME280;12763;55.802;37.404;2023-03-23T03:16:44;99127.69;;;7.89;81.71
24620;BME280;12763;55.802;37.404;2023-03-23T03:19:18;99131.25;;;7.63;83.14
24620;BME280;12763;55.802;37.404;2023-03-23T03:21:48;99129.38;;;7.70;82.41
24620;BME280;12763;55.802;37.404;2023-03-23T03:24:22;99131.72;;;7.73;82.14
24620;BME280;12763;55.802;37.404;2023-03-23T03:26:52;99135.88;;;7.49;83.63
24620;BME280;12763;55.802;37.404;2023-03-23T03:29:32;99132.50;;;7.47;84.83
24620;BME280;12763;55.802;37.404;2023-03-23T03:32:01;99124.09;;;7.68;83.10
24620;BME280;12763;55.802;37.404;2023-03-23T03:34:29;99121.53;;;7.54;83.72
24620;BME280;12763;55.802;37.404;2023-03-23T03:36:58;99130.22;;;7.64;83.68
24620;BME280;12763;55.802;37.404;2023-03-23T03:39:26;99120.69;;;7.60;83.93
24620;BME280;12763;55.802;37.404;2023-03-23T03:41:53;99120.72;;;7.73;82.70
24620;BME280;12763;55.802;37.404;2023-03-23T03:44:20;99121.34;;;7.62;83.77
24620;BME280;12763;55.802;37.404;2023-03-23T03:46:46;99125.56;;;7.71;83.31
24620;BME280;12763;55.802;37.404;2023-03-23T03:49:12;99132.72;;;7.65;84.11
24620;BME280;12763;55.802;37.404;2023-03-23T03:51:40;99125.34;;;7.66;83.74
24620;BME280;12763;55.802;37.404;2023-03-23T03:54:11;99131.47;;;7.55;84.76
24620;BME280;12763;55.802;37.404;2023-03-23T03:56:37;99130.41;;;7.62;85.29
24620;BME280;12763;55.802;37.404;2023-03-23T03:59:24;99116.69;;;7.62;84.92
24620;BME280;12763;55.802;37.404;2023-03-23T04:02:11;99121.53;;;7.60;85.14
24620;BME280;12763;55.802;37.404;2023-03-23T04:04:40;99115.19;;;7.60;86.10
24620;BME280;12763;55.802;37.404;2023-03-23T04:07:07;99116.03;;;7.47;86.66
24620;BME280;12763;55.802;37.404;2023-03-23T04:09:37;99112.66;;;7.52;86.60
24620;BME280;12763;55.802;37.404;2023-03-23T04:12:04;99115.66;;;7.83;84.64
24620;BME280;12763;55.802;37.404;2023-03-23T04:14:52;99117.50;;;7.43;88.26
24620;BME280;12763;55.802;37.404;2023-03-23T04:17:18;99112.25;;;7.55;87.75
24620;BME280;12763;55.802;37.404;2023-03-23T04:19:45;99124.91;;;7.49;88.52
24620;BME280;12763;55.802;37.404;2023-03-23T04:22:14;99110.97;;;7.51;89.32
24620;BME280;12763;55.802;37.404;2023-03-23T04:24:42;99108.03;;;7.59;88.05
24620;BME280;12763;55.802;37.404;2023-03-23T04:27:12;99109.28;;;7.63;89.11
24620;BME280;12763;55.802;37.404;2023-03-23T04:29:39;99104.88;;;7.62;88.42
24620;BME280;12763;55.802;37.404;2023-03-23T04:32:25;99101.91;;;7.77;88.48
24620;BME280;12763;55.802;37.404;2023-03-23T04:34:58;99104.25;;;7.73;89.65
24620;BME280;12763;55.802;37.404;2023-03-23T04:37:37;99104.03;;;7.94;87.98
24620;BME280;12763;55.802;37.404;2023-03-23T04:40:05;99113.50;;;7.98;87.96
24620;BME280;12763;55.802;37.404;2023-03-23T04:42:43;99110.34;;;7.88;87.88
24620;BME280;12763;55.802;37.404;2023-03-23T04:45:29;99115.63;;;8.09;87.36
24620;BME280;12763;55.802;37.404;2023-03-23T04:47:59;99115.84;;;7.88;88.55
24620;BME280;12763;55.802;37.404;2023-03-23T04:50:36;99125.13;;;8.07;87.72
24620;BME280;12763;55.802;37.404;2023-03-23T04:53:13;99110.56;;;7.80;89.94
24620;BME280;12763;55.802;37.404;2023-03-23T04:55:40;99122.19;;;8.02;88.69
24620;BME280;12763;55.802;37.404;2023-03-23T04:58:09;99119.03;;;7.72;90.29
24620;BME280;12763;55.802;37.404;2023-03-23T05:00:42;99130.84;;;7.86;89.80
24620;BME280;12763;55.802;37.404;2023-03-23T05:03:16;99124.09;;;8.01;89.16
24620;BME280;12763;55.802;37.404;2023-03-23T05:05:46;99119.22;;;8.30;87.00
24620;BME280;12763;55.802;37.404;2023-03-23T05:08:20;99120.06;;;8.37;86.96
24620;BME280;12763;55.802;37.404;2023-03-23T05:10:51;99129.16;;;8.31;86.79
24620;BME280;12763;55.802;37.404;2023-03-23T05:13:17;99124.09;;;7.88;90.74
24620;BME280;12763;55.802;37.404;2023-03-23T05:15:48;99128.31;;;8.17;88.60
24620;BME280;12763;55.802;37.404;2023-03-23T05:18:15;99124.28;;;8.19;87.51
24620;BME280;12763;55.802;37.404;2023-03-23T05:20:42;99126.38;;;8.24;87.77
24620;BME280;12763;55.802;37.404;2023-03-23T05:23:15;99123.47;;;7.99;88.79
24620;BME280;12763;55.802;37.404;2023-03-23T05:25:41;99125.75;;;8.22;88.45
24620;BME280;12763;55.802;37.404;2023-03-23T05:28:15;99132.53;;;8.39;87.26
24620;BME280;12763;55.802;37.404;2023-03-23T05:31:01;99127.19;;;8.51;85.75
24620;BME280;12763;55.802;37.404;2023-03-23T05:33:30;99120.88;;;8.37;86.77
24620;BME280;12763;55.802;37.404;2023-03-23T05:35:57;99119.81;;;8.51;86.56
24620;BME280;12763;55.802;37.404;2023-03-23T05:38:28;99121.50;;;8.59;85.90
24620;BME280;12763;55.802;37.404;2023-03-23T05:40:58;99122.97;;;8.48;87.33
24620;BME280;12763;55.802;37.404;2023-03-23T05:43:29;99117.06;;;8.51;87.18
24620;BME280;12763;55.802;37.404;2023-03-23T05:46:18;99114.97;;;8.47;87.35
24620;BME280;12763;55.802;37.404;2023-03-23T05:48:45;99111.78;;;8.50;86.89
24620;BME280;12763;55.802;37.404;2023-03-23T05:51:15;99119.50;;;8.79;85.04
24620;BME280;12763;55.802;37.404;2023-03-23T05:53:43;99120.41;;;8.66;85.78
24620;BME280;12763;55.802;37.404;2023-03-23T05:56:11;99114.53;;;8.50;86.91
24620;BME280;12763;55.802;37.404;2023-03-23T05:59:05;99107.81;;;8.90;84.59
24620;BME280;12763;55.802;37.404;2023-03-23T06:01:34;99116.59;;;9.18;83.38
24620;BME280;12763;55.802;37.404;2023-03-23T06:03:59;99118.75;;;9.10;82.46
24620;BME280;12763;55.802;37.404;2023-03-23T06:06:35;99117.19;;;9.20;82.58
24620;BME280;12763;55.802;37.404;2023-03-23T06:09:08;99122.59;;;9.40;81.22
24620;BME280;12763;55.802;37.404;2023-03-23T06:11:53;99113.81;;;9.56;80.27
24620;BME280;12763;55.802;37.404;2023-03-23T06:14:38;99122.31;;;9.55;79.48
24620;BME280;12763;55.802;37.404;2023-03-23T06:17:05;99110.78;;;9.64;79.40
24620;BME280;12763;55.802;37.404;2023-03-23T06:19:32;99109.13;;;9.88;78.42
24620;BME280;12763;55.802;37.404;2023-03-23T06:22:08;99109.63;;;9.78;78.57
24620;BME280;12763;55.802;37.404;2023-03-23T06:25:00;99108.25;;;9.94;77.26
24620;BME280;12763;55.802;37.404;2023-03-23T06:27:33;99104.94;;;9.79;78.51
24620;BME280;12763;55.802;37.404;2023-03-23T06:30:03;99096.78;;;9.66;79.44
24620;BME280;12763;55.802;37.404;2023-03-23T06:32:31;99091.31;;;10.15;76.86
24620;BME280;12763;55.802;37.404;2023-03-23T06:34:58;99105.41;;;10.00;76.96
24620;BME280;12763;55.802;37.404;2023-03-23T06:38:00;99104.09;;;10.03;76.62
24620;BME280;12763;55.802;37.404;2023-03-23T06:40:52;99108.56;;;10.04;76.66
24620;BME280;12763;55.802;37.404;2023-03-23T06:43:17;99099.72;;;9.95;77.57
24620;BME280;12763;55.802;37.404;2023-03-23T06:46:00;99111.28;;;10.53;74.07
24620;BME280;12763;55.802;37.404;2023-03-23T06:48:35;99098.25;;;10.42;73.89
24620;BME280;12763;55.802;37.404;2023-03-23T06:51:02;99098.22;;;10.24;75.36
24620;BME280;12763;55.802;37.404;2023-03-23T06:53:29;99097.34;;;10.48;73.99
24620;BME280;12763;55.802;37.404;2023-03-23T06:55:57;99089.00;;;10.73;73.20
24620;BME280;12763;55.802;37.404;2023-03-23T06:58:23;99097.44;;;10.60;72.61
24620;BME280;12763;55.802;37.404;2023-03-23T07:00:57;99096.41;;;10.91;71.28
24620;BME280;12763;55.802;37.404;2023-03-23T07:03:29;99093.66;;;10.73;71.60
24620;BME280;12763;55.802;37.404;2023-03-23T07:05:58;99105.16;;;10.70;71.46
24620;BME280;12763;55.802;37.404;2023-03-23T07:08:27;99109.13;;;10.55;72.50
24620;BME280;12763;55.802;37.404;2023-03-23T07:10:55;99089.59;;;10.57;71.69
24620;BME280;12763;55.802;37.404;2023-03-23T07:13:25;99086.63;;;10.77;70.18
24620;BME280;12763;55.802;37.404;2023-03-23T07:15:58;99085.25;;;10.68;69.88
24620;BME280;12763;55.802;37.404;2023-03-23T07:18:25;99085.47;;;10.84;69.84
24620;BME280;12763;55.802;37.404;2023-03-23T07:20:53;99084.91;;;10.94;69.59
24620;BME280;12763;55.802;37.404;2023-03-23T07:23:23;99104.84;;;10.96;68.80
24620;BME280;12763;55.802;37.404;2023-03-23T07:25:56;99092.25;;;11.18;68.05
24620;BME280;12763;55.802;37.404;2023-03-23T07:28:28;99081.19;;;11.18;67.85
24620;BME280;12763;55.802;37.404;2023-03-23T07:31:00;99090.34;;;11.00;67.83
24620;BME280;12763;55.802;37.404;2023-03-23T07:33:26;99096.19;;;11.40;67.28
24620;BME280;12763;55.802;37.404;2023-03-23T07:35:54;99081.00;;;11.31;66.85
24620;BME280;12763;55.802;37.404;2023-03-23T07:38:22;99071.72;;;11.55;65.59
24620;BME280;12763;55.802;37.404;2023-03-23T07:40:51;99065.44;;;11.78;64.82
24620;BME280;12763;55.802;37.404;2023-03-23T07:43:19;99067.66;;;11.28;64.96
24620;BME280;12763;55.802;37.404;2023-03-23T07:45:54;99062.56;;;11.43;66.37
24620;BME280;12763;55.802;37.404;2023-03-23T07:48:24;99057.88;;;11.73;64.24
24620;BME280;12763;55.802;37.404;2023-03-23T07:50:51;99063.50;;;11.37;65.19
24620;BME280;12763;55.802;37.404;2023-03-23T07:53:16;99061.63;;;11.19;65.11
24620;BME280;12763;55.802;37.404;2023-03-23T07:55:48;99053.03;;;11.69;64.06
24620;BME280;12763;55.802;37.404;2023-03-23T07:58:37;99069.38;;;11.82;62.84
24620;BME280;12763;55.802;37.404;2023-03-23T08:01:03;99058.63;;;12.04;61.88
24620;BME280;12763;55.802;37.404;2023-03-23T08:03:31;99054.16;;;12.14;61.06
24620;BME280;12763;55.802;37.404;2023-03-23T08:06:15;99040.91;;;11.93;61.18
24620;BME280;12763;55.802;37.404;2023-03-23T08:08:50;99052.59;;;12.30;60.82
24620;BME280;12763;55.802;37.404;2023-03-23T08:11:39;99043.47;;;12.06;60.95
24620;BME280;12763;55.802;37.404;2023-03-23T08:14:40;99041.63;;;12.23;60.67
24620;BME280;12763;55.802;37.404;2023-03-23T08:17:33;99041.88;;;11.75;60.78
24620;BME280;12763;55.802;37.404;2023-03-23T08:20:15;99036.84;;;12.07;61.05
24620;BME280;12763;55.802;37.404;2023-03-23T08:23:18;99044.00;;;12.66;58.92
24620;BME280;12763;55.802;37.404;2023-03-23T08:26:06;99038.16;;;12.91;58.02
24620;BME280;12763;55.802;37.404;2023-03-23T08:28:53;99028.81;;;12.80;58.48
24620;BME280;12763;55.802;37.404;2023-03-23T08:31:51;99017.78;;;12.97;57.67
24620;BME280;12763;55.802;37.404;2023-03-23T08:34:37;99014.31;;;13.30;56.49
24620;BME280;12763;55.802;37.404;2023-03-23T08:37:28;99017.19;;;12.55;58.05
24620;BME280;12763;55.802;37.404;2023-03-23T08:40:32;99008.03;;;12.66;58.13
24620;BME280;12763;55.802;37.404;2023-03-23T08:43:13;99004.03;;;13.14;56.96
24620;BME280;12763;55.802;37.404;2023-03-23T08:46:01;98998.25;;;13.32;56.36
24620;BME280;12763;55.802;37.404;2023-03-23T08:48:58;98992.69;;;13.60;55.70
24620;BME280;12763;55.802;37.404;2023-03-23T08:51:33;98986.47;;;13.53;55.50
24620;BME280;12763;55.802;37.404;2023-03-23T08:54:12;98977.38;;;13.41;55.65
24620;BME280;12763;55.802;37.404;2023-03-23T08:56:47;98975.50;;;13.30;56.22
24620;BME280;12763;55.802;37.404;2023-03-23T08:59:35;98977.84;;;13.21;55.68
24620;BME280;12763;55.802;37.404;2023-03-23T09:02:20;98978.38;;;13.07;55.59
24620;BME280;12763;55.802;37.404;2023-03-23T09:04:53;98977.78;;;13.05;55.91
24620;BME280;12763;55.802;37.404;2023-03-23T09:07:32;98971.50;;;13.54;54.76
24620;BME280;12763;55.802;37.404;2023-03-23T09:09:58;98976.97;;;13.66;54.13
24620;BME280;12763;55.802;37.404;2023-03-23T09:12:24;98968.31;;;13.79;53.63
24620;BME280;12763;55.802;37.404;2023-03-23T09:14:50;98958.75;;;13.53;54.69
24620;BME280;12763;55.802;37.404;2023-03-23T09:17:15;98971.47;;;13.21;54.73
24620;BME280;12763;55.802;37.404;2023-03-23T09:19:41;98959.91;;;13.74;54.02
24620;BME280;12763;55.802;37.404;2023-03-23T09:22:07;98952.59;;;13.84;53.80
24620;BME280;12763;55.802;37.404;2023-03-23T09:24:33;98935.81;;;14.12;52.88
24620;BME280;12763;55.802;37.404;2023-03-23T09:26:59;98940.78;;;14.10;52.92
24620;BME280;12763;55.802;37.404;2023-03-23T09:29:26;98958.06;;;13.46;53.93
24620;BME280;12763;55.802;37.404;2023-03-23T09:31:53;98941.34;;;13.41;53.88
24620;BME280;12763;55.802;37.404;2023-03-23T09:34:20;98941.44;;;13.46;53.58
24620;BME280;12763;55.802;37.404;2023-03-23T09:36:46;98933.78;;;14.25;52.45
24620;BME280;12763;55.802;37.404;2023-03-23T09:39:12;98944.25;;;14.01;52.12
24620;BME280;12763;55.802;37.404;2023-03-23T09:41:58;98911.16;;;14.33;51.75
24620;BME280;12763;55.802;37.404;2023-03-23T09:50:12;98894.66;;;15.55;48.77
24620;BME280;12763;55.802;37.404;2023-03-23T09:55:12;98898.84;;;15.94;47.87
24620;BME280;12763;55.802;37.404;2023-03-23T09:57:54;98893.75;;;15.81;47.16
24620;BME280;12763;55.802;37.404;2023-03-23T10:00:32;98902.75;;;15.93;46.99
24620;BME280;12763;55.802;37.404;2023-03-23T10:03:20;98891.25;;;16.26;46.00
24620;BME280;12763;55.802;37.404;2023-03-23T10:05:51;98894.28;;;16.20;46.02
24620;BME280;12763;55.802;37.404;2023-03-23T10:08:26;98893.56;;;16.50;44.93
24620;BME280;12763;55.802;37.404;2023-03-23T10:22:49;98881.09;;;16.00;45.52
24620;BME280;12763;55.802;37.404;2023-03-23T10:25:24;98893.63;;;16.55;44.36
24620;BME280;12763;55.802;37.404;2023-03-23T10:28:04;98891.19;;;16.16;44.59
24620;BME280;12763;55.802;37.404;2023-03-23T10:30:35;98878.00;;;16.49;44.06
24620;BME280;12763;55.802;37.404;2023-03-23T10:35:42;98884.84;;;17.03;43.35
24620;BME280;12763;55.802;37.404;2023-03-23T10:38:26;98884.25;;;16.76;43.22
24620;BME280;12763;55.802;37.404;2023-03-23T10:40:59;98871.19;;;17.01;43.19
24620;BME280;12763;55.802;37.404;2023-03-23T10:43:26;98872.34;;;17.71;42.39
24620;BME280;12763;55.802;37.404;2023-03-23T10:46:02;98872.38;;;17.56;41.97
24620;BME280;12763;55.802;37.404;2023-03-23T10:48:35;98890.34;;;18.34;40.69
24620;BME280;12763;55.802;37.404;2023-03-23T10:51:04;98904.41;;;17.48;41.82
24620;BME280;12763;55.802;37.404;2023-03-23T10:53:36;98899.44;;;17.55;42.31
24620;BME280;12763;55.802;37.404;2023-03-23T10:56:03;98878.94;;;18.31;41.50
24620;BME280;12763;55.802;37.404;2023-03-23T10:58:32;98869.63;;;18.45;40.46
24620;BME280;12763;55.802;37.404;2023-03-23T11:01:00;98878.38;;;18.34;40.50
24620;BME280;12763;55.802;37.404;2023-03-23T11:03:48;98870.53;;;18.36;39.86
24620;BME280;12763;55.802;37.404;2023-03-23T11:06:21;98863.41;;;17.84;40.89
24620;BME280;12763;55.802;37.404;2023-03-23T11:08:54;98872.41;;;18.60;40.30
24620;BME280;12763;55.802;37.404;2023-03-23T11:11:29;98880.84;;;19.43;38.90
24620;BME280;12763;55.802;37.404;2023-03-23T11:14:01;98878.16;;;18.05;40.91
24620;BME280;12763;55.802;37.404;2023-03-23T11:16:30;98873.69;;;18.04;40.71
24620;BME280;12763;55.802;37.404;2023-03-23T11:18:59;98886.97;;;18.52;40.69
24620;BME280;12763;55.802;37.404;2023-03-23T11:21:26;98891.31;;;17.79;41.56
24620;BME280;12763;55.802;37.404;2023-03-23T11:23:58;98885.16;;;17.12;42.19
24620;BME280;12763;55.802;37.404;2023-03-23T11:26:27;98872.44;;;16.49;43.70
24620;BME280;12763;55.802;37.404;2023-03-23T11:31:33;98883.94;;;16.72;43.18
24620;BME280;12763;55.802;37.404;2023-03-23T11:34:01;98888.91;;;16.08;44.44
24620;BME280;12763;55.802;37.404;2023-03-23T11:36:38;98871.38;;;15.66;45.39
24620;BME280;12763;55.802;37.404;2023-03-23T11:39:48;98879.19;;;15.69;45.49
24620;BME280;12763;55.802;37.404;2023-03-23T11:45:35;98880.81;;;15.60;45.84
24620;BME280;12763;55.802;37.404;2023-03-23T11:51:08;98878.69;;;15.77;45.82
24620;BME280;12763;55.802;37.404;2023-03-23T11:53:58;98885.22;;;15.56;46.43
24620;BME280;12763;55.802;37.404;2023-03-23T11:56:41;98875.31;;;15.70;46.16
24620;BME280;12763;55.802;37.404;2023-03-23T11:59:17;98879.34;;;15.89;46.02
24620;BME280;12763;55.802;37.404;2023-03-23T12:10:32;98862.44;;;15.54;46.57
24620;BME280;12763;55.802;37.404;2023-03-23T12:16:17;98874.41;;;15.27;47.27
24620;BME280;12763;55.802;37.404;2023-03-23T12:21:22;98861.88;;;15.52;47.09
24620;BME280;12763;55.802;37.404;2023-03-23T12:27:28;98859.22;;;15.40;47.35
24620;BME280;12763;55.802;37.404;2023-03-23T12:29:39;98852.19;;;15.59;46.90
24620;BME280;12763;55.802;37.404;2023-03-23T12:32:44;98846.63;;;15.59;46.90
24620;BME280;12763;55.802;37.404;2023-03-23T12:35:22;98841.00;;;15.22;47.85
24620;BME280;12763;55.802;37.404;2023-03-23T12:38:07;98845.06;;;15.42;47.30
24620;BME280;12763;55.802;37.404;2023-03-23T12:46:17;98840.41;;;15.89;46.72
24620;BME280;12763;55.802;37.404;2023-03-23T12:51:58;98838.59;;;15.63;46.86
24620;BME280;12763;55.802;37.404;2023-03-23T12:54:32;98829.09;;;15.59;47.33
24620;BME280;12763;55.802;37.404;2023-03-23T12:57:25;98828.72;;;15.92;46.63
24620;BME280;12763;55.802;37.404;2023-03-23T13:05:24;98823.31;;;15.34;47.31
24620;BME280;12763;55.802;37.404;2023-03-23T13:08:33;98823.66;;;15.79;46.83
24620;BME280;12763;55.802;37.404;2023-03-23T13:11:04;98813.59;;;15.73;47.07
24620;BME280;12763;55.802;37.404;2023-03-23T13:13:46;98823.94;;;15.41;47.90
24620;BME280;12763;55.802;37.404;2023-03-23T13:19:06;98810.41;;;15.17;48.45
24620;BME280;12763;55.802;37.404;2023-03-23T13:21:59;98811.69;;;15.42;48.29
24620;BME280;12763;55.802;37.404;2023-03-23T13:24:32;98813.16;;;15.12;49.02
24620;BME280;12763;55.802;37.404;2023-03-23T13:26:59;98803.63;;;15.40;48.27
24620;BME280;12763;55.802;37.404;2023-03-23T13:29:26;98803.44;;;15.15;48.61
24620;BME280;12763;55.802;37.404;2023-03-23T13:32:05;98800.22;;;15.33;48.07
24620;BME280;12763;55.802;37.404;2023-03-23T13:34:32;98799.63;;;14.94;48.78
24620;BME280;12763;55.802;37.404;2023-03-23T13:37:06;98801.78;;;14.82;49.44
24620;BME280;12763;55.802;37.404;2023-03-23T13:40:15;98805.81;;;14.69;50.17
24620;BME280;12763;55.802;37.404;2023-03-23T13:42:56;98799.22;;;14.49;50.39
24620;BME280;12763;55.802;37.404;2023-03-23T13:48:05;98780.44;;;14.61;50.04
24620;BME280;12763;55.802;37.404;2023-03-23T13:50:56;98803.78;;;14.60;50.50
24620;BME280;12763;55.802;37.404;2023-03-23T13:53:29;98793.28;;;14.67;50.12
24620;BME280;12763;55.802;37.404;2023-03-23T13:56:13;98793.63;;;14.44;50.67
24620;BME280;12763;55.802;37.404;2023-03-23T13:58:50;98778.91;;;14.75;49.98
24620;BME280;12763;55.802;37.404;2023-03-23T14:01:34;98774.25;;;14.81;50.23
24620;BME280;12763;55.802;37.404;2023-03-23T14:04:07;98769.59;;;15.23;49.24
24620;BME280;12763;55.802;37.404;2023-03-23T14:06:36;98764.38;;;15.68;48.25
24620;BME280;12763;55.802;37.404;2023-03-23T14:09:28;98758.31;;;16.59;46.32
24620;BME280;12763;55.802;37.404;2023-03-23T14:11:57;98773.28;;;16.53;46.59
24620;BME280;12763;55.802;37.404;2023-03-23T14:14:27;98771.75;;;15.48;48.43
24620;BME280;12763;55.802;37.404;2023-03-23T14:17:07;98765.25;;;15.00;49.50
24620;BME280;12763;55.802;37.404;2023-03-23T14:19:38;98766.63;;;14.98;49.81
24620;BME280;12763;55.802;37.404;2023-03-23T14:22:04;98763.88;;;14.18;51.50
24620;BME280;12763;55.802;37.404;2023-03-23T14:24:32;98768.00;;;14.37;51.69
24620;BME280;12763;55.802;37.404;2023-03-23T14:29:30;98768.94;;;14.26;51.98
24620;BME280;12763;55.802;37.404;2023-03-23T14:31:57;98764.78;;;14.50;51.29
24620;BME280;12763;55.802;37.404;2023-03-23T14:34:27;98768.31;;;14.19;52.28
24620;BME280;12763;55.802;37.404;2023-03-23T14:36:54;98768.75;;;14.05;52.76
24620;BME280;12763;55.802;37.404;2023-03-23T14:39:29;98761.31;;;14.11;53.29
24620;BME280;12763;55.802;37.404;2023-03-23T14:42:03;98751.72;;;14.45;52.60
24620;BME280;12763;55.802;37.404;2023-03-23T14:44:33;98747.53;;;14.43;52.42
24620;BME280;12763;55.802;37.404;2023-03-23T14:47:05;98734.00;;;14.83;51.36
24620;BME280;12763;55.802;37.404;2023-03-23T14:49:37;98740.41;;;14.84;51.42
24620;BME280;12763;55.802;37.404;2023-03-23T14:52:11;98746.13;;;15.46;50.39
24620;BME280;12763;55.802;37.404;2023-03-23T14:54:37;98755.81;;;15.85;49.24
24620;BME280;12763;55.802;37.404;2023-03-23T14:57:18;98752.53;;;15.93;48.96
24620;BME280;12763;55.802;37.404;2023-03-23T14:59:48;98764.91;;;15.28;50.19